Terminal Aerodrome Forecast
Issued by NWS

Home | Current Version | Previous Version | Text Only | Print | Product List | Glossary Off
Versions: 1 2 3 4 5 6 7 8 9 10 11 12 13

000
FTUS43 KTOP 220520
TAFFOE
TAF
KFOE 220520Z 2206/2306 02008KT 6SM -SHRA OVC040
     FM221000 02010KT P6SM OVC040
     FM221500 02014KT P6SM BKN060
     FM230000 01006KT P6SM BKN250=

USA.gov is the U.S. government's official web portal to all federal, state and local government web resources and services.